Terminal Aerodrome Forecast
Issued by NWS

Home | Current Version | Previous Version | Text Only | Print | Product List | Glossary Off
Versions: 1 2 3 4 5 6 7 8 9 10 11 12 13 14 15 16 17 18

000
FTUS43 KMPX 131100 RRA
TAFAXN
TAF
KAXN 131141Z 1312/1412 34013G21KT P6SM OVC007
     FM131400 36018G25KT P6SM OVC012
     FM131800 35023G34KT P6SM SCT020 BKN040
     FM140200 35019G27KT P6SM BKN040
     FM140600 33015KT P6SM SCT050 BKN250=

USA.gov is the U.S. government's official web portal to all federal, state and local government web resources and services.